Time,TemperatureF,DewpointF,PressureIn,WindDirection,WindDirectionDegrees,WindSpeedMPH,WindSpeedGustMPH,Humidity,HourlyPrecipIn,Conditions,Clouds,dailyrainin,SolarRadiationWatts/m^2,SoftwareType,DateUTC
2013-02-04 00:02:00,22.0,19.0,-100.00,WNW,288,3.0,4.0,88,0.00,,,0.00,0.000000,,2013-02-04 06:02:00,
2013-02-04 00:32:00,22.0,19.0,-100.00,East,84,2.0,2.0,87,0.00,,,0.00,0.000000,,2013-02-04 06:32:00,
2013-02-04 00:42:00,22.0,19.0,-100.00,East,84,2.0,2.0,87,0.00,,,0.00,0.000000,,2013-02-04 06:42:00,
2013-02-04 00:52:00,22.0,19.0,-100.00,East,84,2.0,2.0,87,0.00,,,0.00,0.000000,,2013-02-04 06:52:00,
2013-02-04 01:02:00,22.0,19.0,-100.00,East,84,2.0,2.0,87,0.00,,,0.00,0.000000,,2013-02-04 07:02:00,
2013-02-04 01:32:00,22.0,19.0,-100.00,SE,131,3.0,5.0,88,0.00,,,0.00,0.000000,,2013-02-04 07:32:00,
2013-02-04 01:42:00,22.0,19.0,-100.00,SE,131,3.0,5.0,88,0.00,,,0.00,0.000000,,2013-02-04 07:42:00,
2013-02-04 01:52:00,22.0,19.0,-100.00,SE,131,3.0,5.0,88,0.00,,,0.00,0.000000,,2013-02-04 07:52:00,
2013-02-04 02:01:00,22.0,19.0,-100.00,SE,131,3.0,5.0,88,0.00,,,0.00,0.000000,,2013-02-04 08:01:00,
2013-02-04 02:32:00,22.0,19.0,-100.00,SE,125,6.0,7.0,88,0.00,,,0.00,0.000000,,2013-02-04 08:32:00,
2013-02-04 02:42:00,22.0,19.0,-100.00,SE,125,6.0,7.0,88,0.00,,,0.00,0.000000,,2013-02-04 08:42:00,
2013-02-04 02:52:00,22.0,19.0,-100.00,SE,125,6.0,7.0,88,0.00,,,0.00,0.000000,,2013-02-04 08:52:00,
2013-02-04 03:02:00,22.0,19.0,-100.00,SE,125,6.0,7.0,88,0.00,,,0.00,0.000000,,2013-02-04 09:02:00,
2013-02-04 03:32:00,23.0,20.0,-100.00,SE,136,7.0,9.0,88,0.00,,,0.00,0.000000,,2013-02-04 09:32:00,
2013-02-04 03:42:00,23.0,20.0,-100.00,SE,136,7.0,9.0,88,0.00,,,0.00,0.000000,,2013-02-04 09:42:00,
2013-02-04 03:52:00,23.0,20.0,-100.00,SE,136,7.0,9.0,88,0.00,,,0.00,0.000000,,2013-02-04 09:52:00,
2013-02-04 04:01:00,23.0,20.0,-100.00,SE,136,7.0,9.0,88,0.00,,,0.00,0.000000,,2013-02-04 10:01:00,
2013-02-04 04:32:00,24.0,20.0,-100.00,SE,144,9.0,12.0,84,0.00,,,0.00,0.000000,,2013-02-04 10:32:00,
2013-02-04 04:42:00,24.0,20.0,-100.00,SE,144,9.0,12.0,84,0.00,,,0.00,0.000000,,2013-02-04 10:42:00,
2013-02-04 04:52:00,24.0,20.0,-100.00,SE,144,9.0,12.0,84,0.00,,,0.00,0.000000,,2013-02-04 10:52:00,
2013-02-04 05:02:00,24.0,20.0,-100.00,SE,144,9.0,12.0,84,0.00,,,0.00,0.000000,,2013-02-04 11:02:00,
2013-02-04 05:33:00,25.0,19.0,-100.00,SE,140,8.0,11.0,79,0.00,,,0.00,0.000000,,2013-02-04 11:33:00,
2013-02-04 05:42:00,25.0,19.0,-100.00,SE,140,8.0,11.0,79,0.00,,,0.00,0.000000,,2013-02-04 11:42:00,
2013-02-04 05:52:00,25.0,19.0,-100.00,SE,140,8.0,11.0,79,0.00,,,0.00,0.000000,,2013-02-04 11:52:00,
2013-02-04 06:02:00,25.0,19.0,-100.00,SE,140,8.0,11.0,79,0.00,,,0.00,0.000000,,2013-02-04 12:02:00,
2013-02-04 06:33:00,25.0,19.0,-100.00,SE,128,7.0,9.0,77,0.00,,,0.00,0.000000,,2013-02-04 12:33:00,
2013-02-04 06:42:00,25.0,19.0,-100.00,SE,128,7.0,9.0,77,0.00,,,0.00,0.000000,,2013-02-04 12:42:00,
2013-02-04 06:53:00,25.0,19.0,-100.00,SE,128,7.0,9.0,77,0.00,,,0.00,0.000000,,2013-02-04 12:53:00,
2013-02-04 07:02:00,25.0,19.0,-100.00,SE,128,7.0,9.0,77,0.00,,,0.00,0.000000,,2013-02-04 13:02:00,
2013-02-04 07:33:00,25.0,19.0,-100.00,ESE,116,6.0,8.0,78,0.00,,,0.00,0.000000,,2013-02-04 13:33:00,
2013-02-04 07:42:00,25.0,19.0,-100.00,ESE,116,6.0,8.0,78,0.00,,,0.00,0.000000,,2013-02-04 13:42:00,
2013-02-04 07:52:00,25.0,19.0,-100.00,ESE,116,6.0,8.0,78,0.00,,,0.00,0.000000,,2013-02-04 13:52:00,
2013-02-04 08:03:00,25.0,19.0,-100.00,ESE,116,6.0,8.0,78,0.00,,,0.00,0.000000,,2013-02-04 14:03:00,
2013-02-04 08:33:00,26.0,19.0,-100.00,East,100,4.0,7.0,74,0.00,,,0.00,21.000000,,2013-02-04 14:33:00,
2013-02-04 08:42:00,26.0,19.0,-100.00,East,100,4.0,7.0,74,0.00,,,0.00,21.000000,,2013-02-04 14:42:00,
2013-02-04 08:52:00,26.0,19.0,-100.00,East,100,4.0,7.0,74,0.00,,,0.00,21.000000,,2013-02-04 14:52:00,
2013-02-04 09:03:00,26.0,19.0,-100.00,East,100,4.0,7.0,74,0.00,,,0.00,21.000000,,2013-02-04 15:03:00,
2013-02-04 09:33:00,27.0,21.0,-100.00,ESE,110,7.0,11.0,77,0.00,,,0.00,83.000000,,2013-02-04 15:33:00,
2013-02-04 09:43:00,27.0,21.0,-100.00,ESE,110,7.0,11.0,77,0.00,,,0.00,83.000000,,2013-02-04 15:43:00,
2013-02-04 09:53:00,27.0,21.0,-100.00,ESE,110,7.0,11.0,77,0.00,,,0.00,83.000000,,2013-02-04 15:53:00,
2013-02-04 10:03:00,27.0,21.0,-100.00,ESE,110,7.0,11.0,77,0.00,,,0.00,83.000000,,2013-02-04 16:03:00,
2013-02-04 12:33:00,31.0,22.0,-100.00,ENE,61,6.0,10.0,69,-99.99,,,0.04,412.000000,,2013-02-04 18:33:00,
2013-02-04 12:42:00,31.0,22.0,-100.00,ENE,61,6.0,10.0,69,-99.99,,,0.04,412.000000,,2013-02-04 18:42:00,
2013-02-04 12:52:00,31.0,22.0,-100.00,ENE,61,6.0,10.0,69,-99.99,,,0.04,412.000000,,2013-02-04 18:52:00,
2013-02-04 13:02:00,31.0,22.0,-100.00,ENE,61,6.0,10.0,69,-99.99,,,0.04,412.000000,,2013-02-04 19:02:00,
2013-02-04 13:32:00,30.0,22.0,-100.00,NE,38,7.0,11.0,73,0.00,,,0.04,359.000000,,2013-02-04 19:32:00,
2013-02-04 13:42:00,30.0,22.0,-100.00,NE,38,7.0,11.0,73,0.00,,,0.04,359.000000,,2013-02-04 19:42:00,
2013-02-04 13:52:00,30.0,22.0,-100.00,NE,38,7.0,11.0,73,0.00,,,0.04,359.000000,,2013-02-04 19:52:00,
2013-02-04 14:02:00,30.0,22.0,-100.00,NE,38,7.0,11.0,73,0.00,,,0.04,359.000000,,2013-02-04 20:02:00,
2013-02-04 15:32:00,30.0,23.0,-100.00,NNE,16,7.0,10.0,74,-99.99,,,0.04,145.000000,,2013-02-04 21:32:00,
2013-02-04 15:43:00,30.0,23.0,-100.00,NNE,16,7.0,10.0,74,-99.99,,,0.04,145.000000,,2013-02-04 21:43:00,
2013-02-04 15:52:00,30.0,23.0,-100.00,NNE,16,7.0,10.0,74,-99.99,,,0.04,145.000000,,2013-02-04 21:52:00,
2013-02-04 16:02:00,30.0,23.0,-100.00,NNE,16,7.0,10.0,74,-99.99,,,0.04,145.000000,,2013-02-04 22:02:00,
2013-02-04 16:33:00,29.0,24.0,-100.00,NNE,30,8.0,10.0,80,0.00,,,0.04,39.000000,,2013-02-04 22:33:00,
2013-02-04 16:42:00,29.0,24.0,-100.00,NNE,30,8.0,10.0,80,0.00,,,0.04,39.000000,,2013-02-04 22:42:00,
2013-02-04 16:52:00,29.0,24.0,-100.00,NNE,30,8.0,10.0,80,0.00,,,0.04,39.000000,,2013-02-04 22:52:00,
2013-02-04 17:01:00,29.0,24.0,-100.00,NNE,30,8.0,10.0,80,0.00,,,0.04,39.000000,,2013-02-04 23:01:00,
2013-02-04 17:32:00,29.0,24.0,-100.00,North,354,8.0,13.0,81,0.00,,,0.04,16.000000,,2013-02-04 23:32:00,
2013-02-04 17:42:00,29.0,24.0,-100.00,North,354,8.0,13.0,81,0.00,,,0.04,16.000000,,2013-02-04 23:42:00,
2013-02-04 17:52:00,29.0,24.0,-100.00,North,354,8.0,13.0,81,0.00,,,0.04,16.000000,,2013-02-04 23:52:00,
2013-02-04 18:01:00,29.0,24.0,-100.00,North,354,8.0,13.0,81,0.00,,,0.04,16.000000,,2013-02-05 00:01:00,
2013-02-04 18:32:00,28.0,22.0,-100.00,North,6,7.0,9.0,78,0.00,,,0.04,0.000000,,2013-02-05 00:32:00,
2013-02-04 18:42:00,28.0,22.0,-100.00,North,6,7.0,9.0,78,0.00,,,0.04,0.000000,,2013-02-05 00:42:00,
2013-02-04 18:52:00,28.0,22.0,-100.00,North,6,7.0,9.0,78,0.00,,,0.04,0.000000,,2013-02-05 00:52:00,
2013-02-04 19:02:00,28.0,22.0,-100.00,North,6,7.0,9.0,78,0.00,,,0.04,0.000000,,2013-02-05 01:02:00,
2013-02-04 19:33:00,26.0,21.0,-100.00,North,349,7.0,8.0,80,0.00,,,0.04,0.000000,,2013-02-05 01:33:00,
2013-02-04 19:42:00,26.0,21.0,-100.00,North,349,7.0,8.0,80,0.00,,,0.04,0.000000,,2013-02-05 01:42:00,
2013-02-04 19:52:00,26.0,21.0,-100.00,North,349,7.0,8.0,80,0.00,,,0.04,0.000000,,2013-02-05 01:52:00,
2013-02-04 20:01:00,26.0,21.0,-100.00,North,349,7.0,8.0,80,0.00,,,0.04,0.000000,,2013-02-05 02:01:00,
2013-02-04 20:32:00,23.0,19.0,-100.00,North,352,6.0,9.0,84,0.00,,,0.04,0.000000,,2013-02-05 02:32:00,
2013-02-04 20:42:00,23.0,19.0,-100.00,North,352,6.0,9.0,84,0.00,,,0.04,0.000000,,2013-02-05 02:42:00,
2013-02-04 20:52:00,23.0,19.0,-100.00,North,352,6.0,9.0,84,0.00,,,0.04,0.000000,,2013-02-05 02:52:00,
2013-02-04 21:02:00,23.0,19.0,-100.00,North,352,6.0,9.0,84,0.00,,,0.04,0.000000,,2013-02-05 03:02:00,
2013-02-04 21:32:00,22.0,18.0,-100.00,NW,315,5.0,6.0,86,0.00,,,0.04,0.000000,,2013-02-05 03:32:00,
2013-02-04 21:42:00,22.0,18.0,-100.00,NW,315,5.0,6.0,86,0.00,,,0.04,0.000000,,2013-02-05 03:42:00,
2013-02-04 21:52:00,22.0,18.0,-100.00,NW,315,5.0,6.0,86,0.00,,,0.04,0.000000,,2013-02-05 03:52:00,
2013-02-04 22:01:00,22.0,18.0,-100.00,NW,315,5.0,6.0,86,0.00,,,0.04,0.000000,,2013-02-05 04:01:00,
2013-02-04 22:32:00,19.0,16.0,-100.00,WNW,289,4.0,6.0,88,0.00,,,0.04,0.000000,,2013-02-05 04:32:00,
2013-02-04 22:42:00,19.0,16.0,-100.00,WNW,289,4.0,6.0,88,0.00,,,0.04,0.000000,,2013-02-05 04:42:00,
2013-02-04 22:52:00,19.0,16.0,-100.00,WNW,289,4.0,6.0,88,0.00,,,0.04,0.000000,,2013-02-05 04:52:00,
2013-02-04 23:02:00,19.0,16.0,-100.00,WNW,289,4.0,6.0,88,0.00,,,0.04,0.000000,,2013-02-05 05:02:00,
2013-02-04 23:32:00,17.0,14.0,-100.00,NW,324,5.0,7.0,87,0.00,,,0.04,0.000000,,2013-02-05 05:32:00,
2013-02-04 23:42:00,17.0,14.0,-100.00,NW,324,5.0,7.0,87,0.00,,,0.04,0.000000,,2013-02-05 05:42:00,
2013-02-04 23:52:00,17.0,14.0,-100.00,NW,324,5.0,7.0,87,0.00,,,0.04,0.000000,,2013-02-05 05:52:00,